sensor_id;sensor_type;location;lat;lon;timestamp;P1;durP1;ratioP1;P2;durP2;ratioP2
71391;SDS011;59205;50.610;12.638;2022-09-03T00:00:59;2.58;;;1.60;;
71391;SDS011;59205;50.610;12.638;2022-09-03T00:03:33;4.25;;;1.90;;
71391;SDS011;59205;50.610;12.638;2022-09-03T00:08:38;2.83;;;1.60;;
71391;SDS011;59205;50.610;12.638;2022-09-03T00:11:17;2.90;;;1.70;;
71391;SDS011;59205;50.610;12.638;2022-09-03T00:16:43;4.03;;;1.80;;
71391;SDS011;59205;50.610;12.638;2022-09-03T00:19:12;4.20;;;1.70;;
71391;SDS011;59205;50.610;12.638;2022-09-03T00:21:53;2.92;;;1.60;;
71391;SDS011;59205;50.610;12.638;2022-09-03T00:24:23;3.72;;;1.80;;
71391;SDS011;59205;50.610;12.638;2022-09-03T00:26:54;4.05;;;1.80;;
71391;SDS011;59205;50.610;12.638;2022-09-03T00:29:27;4.63;;;1.52;;
71391;SDS011;59205;50.610;12.638;2022-09-03T00:32:02;2.42;;;1.60;;
71391;SDS011;59205;50.610;12.638;2022-09-03T00:34:38;4.40;;;1.60;;
71391;SDS011;59205;50.610;12.638;2022-09-03T00:37:07;5.30;;;1.83;;
71391;SDS011;59205;50.610;12.638;2022-09-03T00:39:34;2.42;;;1.60;;
71391;SDS011;59205;50.610;12.638;2022-09-03T00:45:07;5.18;;;1.95;;
71391;SDS011;59205;50.610;12.638;2022-09-03T00:47:48;2.50;;;1.70;;
71391;SDS011;59205;50.610;12.638;2022-09-03T00:55:53;3.83;;;1.60;;
71391;SDS011;59205;50.610;12.638;2022-09-03T01:01:06;3.75;;;1.73;;
71391;SDS011;59205;50.610;12.638;2022-09-03T01:03:51;5.32;;;1.67;;
71391;SDS011;59205;50.610;12.638;2022-09-03T01:30:19;3.67;;;1.70;;
71391;SDS011;59205;50.610;12.638;2022-09-03T01:35:43;5.30;;;1.92;;
71391;SDS011;59205;50.610;12.638;2022-09-03T01:55:20;5.43;;;1.98;;
71391;SDS011;59205;50.610;12.638;2022-09-03T02:00:23;5.60;;;1.83;;
71391;SDS011;59205;50.610;12.638;2022-09-03T02:02:52;3.42;;;2.00;;
71391;SDS011;59205;50.610;12.638;2022-09-03T02:05:22;3.28;;;1.73;;
71391;SDS011;59205;50.610;12.638;2022-09-03T02:07:56;3.33;;;1.90;;
71391;SDS011;59205;50.610;12.638;2022-09-03T02:11:06;4.90;;;1.80;;
71391;SDS011;59205;50.610;12.638;2022-09-03T02:13:21;5.78;;;2.10;;
71391;SDS011;59205;50.610;12.638;2022-09-03T02:15:47;4.00;;;2.13;;
71391;SDS011;59205;50.610;12.638;2022-09-03T02:18:18;2.40;;;1.67;;
71391;SDS011;59205;50.610;12.638;2022-09-03T02:20:48;3.83;;;2.00;;
71391;SDS011;59205;50.610;12.638;2022-09-03T02:23:14;3.75;;;1.80;;
71391;SDS011;59205;50.610;12.638;2022-09-03T02:25:42;3.97;;;1.83;;
71391;SDS011;59205;50.610;12.638;2022-09-03T02:28:12;2.85;;;1.70;;
71391;SDS011;59205;50.610;12.638;2022-09-03T02:30:39;3.22;;;1.80;;
71391;SDS011;59205;50.610;12.638;2022-09-03T02:33:05;5.68;;;1.70;;
71391;SDS011;59205;50.610;12.638;2022-09-03T02:35:30;5.07;;;1.85;;
71391;SDS011;59205;50.610;12.638;2022-09-03T02:37:55;4.70;;;1.70;;
71391;SDS011;59205;50.610;12.638;2022-09-03T02:40:21;3.67;;;1.85;;
71391;SDS011;59205;50.610;12.638;2022-09-03T02:42:46;3.67;;;1.90;;
71391;SDS011;59205;50.610;12.638;2022-09-03T02:45:28;2.75;;;1.80;;
71391;SDS011;59205;50.610;12.638;2022-09-03T02:47:55;2.67;;;1.70;;
71391;SDS011;59205;50.610;12.638;2022-09-03T02:50:23;3.40;;;2.00;;
71391;SDS011;59205;50.610;12.638;2022-09-03T02:52:49;3.78;;;1.90;;
71391;SDS011;59205;50.610;12.638;2022-09-03T02:55:15;4.85;;;1.67;;
71391;SDS011;59205;50.610;12.638;2022-09-03T02:57:41;3.65;;;1.90;;
71391;SDS011;59205;50.610;12.638;2022-09-03T03:00:07;3.78;;;1.95;;
71391;SDS011;59205;50.610;12.638;2022-09-03T03:02:33;5.43;;;2.03;;
71391;SDS011;59205;50.610;12.638;2022-09-03T03:04:58;3.33;;;2.00;;
71391;SDS011;59205;50.610;12.638;2022-09-03T03:07:24;3.30;;;1.88;;
71391;SDS011;59205;50.610;12.638;2022-09-03T03:09:50;4.35;;;1.80;;
71391;SDS011;59205;50.610;12.638;2022-09-03T03:12:16;4.35;;;1.70;;
71391;SDS011;59205;50.610;12.638;2022-09-03T03:14:42;2.63;;;1.52;;
71391;SDS011;59205;50.610;12.638;2022-09-03T03:17:07;6.25;;;1.92;;
71391;SDS011;59205;50.610;12.638;2022-09-03T03:19:33;2.20;;;1.60;;
71391;SDS011;59205;50.610;12.638;2022-09-03T03:21:58;3.15;;;1.52;;
71391;SDS011;59205;50.610;12.638;2022-09-03T03:24:24;5.72;;;1.73;;
71391;SDS011;59205;50.610;12.638;2022-09-03T03:26:49;3.58;;;1.67;;
71391;SDS011;59205;50.610;12.638;2022-09-03T03:29:15;4.20;;;1.77;;
71391;SDS011;59205;50.610;12.638;2022-09-03T03:31:42;5.60;;;1.90;;
71391;SDS011;59205;50.610;12.638;2022-09-03T03:34:07;3.10;;;1.77;;
71391;SDS011;59205;50.610;12.638;2022-09-03T03:36:33;3.40;;;1.77;;
71391;SDS011;59205;50.610;12.638;2022-09-03T03:39:00;3.45;;;1.80;;
71391;SDS011;59205;50.610;12.638;2022-09-03T03:41:28;4.03;;;1.77;;
71391;SDS011;59205;50.610;12.638;2022-09-03T03:43:59;7.50;;;1.85;;
71391;SDS011;59205;50.610;12.638;2022-09-03T03:46:31;3.85;;;1.90;;
71391;SDS011;59205;50.610;12.638;2022-09-03T03:48:58;3.63;;;1.90;;
71391;SDS011;59205;50.610;12.638;2022-09-03T03:51:23;3.75;;;1.77;;
71391;SDS011;59205;50.610;12.638;2022-09-03T03:53:52;4.55;;;1.80;;
71391;SDS011;59205;50.610;12.638;2022-09-03T03:58:44;5.60;;;1.80;;
71391;SDS011;59205;50.610;12.638;2022-09-03T04:03:39;4.65;;;1.60;;
71391;SDS011;59205;50.610;12.638;2022-09-03T04:06:06;4.25;;;1.70;;
71391;SDS011;59205;50.610;12.638;2022-09-03T04:08:36;4.53;;;1.70;;
71391;SDS011;59205;50.610;12.638;2022-09-03T04:11:04;6.40;;;2.97;;
71391;SDS011;59205;50.610;12.638;2022-09-03T04:13:36;5.38;;;3.28;;
71391;SDS011;59205;50.610;12.638;2022-09-03T04:16:03;4.45;;;1.63;;
71391;SDS011;59205;50.610;12.638;2022-09-03T04:18:56;3.72;;;1.80;;
71391;SDS011;59205;50.610;12.638;2022-09-03T04:21:23;4.20;;;1.40;;
71391;SDS011;59205;50.610;12.638;2022-09-03T04:23:50;4.50;;;1.75;;
71391;SDS011;59205;50.610;12.638;2022-09-03T04:26:18;3.30;;;1.70;;
71391;SDS011;59205;50.610;12.638;2022-09-03T04:28:45;4.00;;;2.05;;
71391;SDS011;59205;50.610;12.638;2022-09-03T04:31:12;3.30;;;1.80;;
71391;SDS011;59205;50.610;12.638;2022-09-03T04:33:39;4.72;;;1.67;;
71391;SDS011;59205;50.610;12.638;2022-09-03T04:36:13;4.40;;;1.80;;
71391;SDS011;59205;50.610;12.638;2022-09-03T04:38:44;2.50;;;1.65;;
71391;SDS011;59205;50.610;12.638;2022-09-03T04:41:12;3.15;;;1.58;;
71391;SDS011;59205;50.610;12.638;2022-09-03T04:43:39;3.15;;;1.77;;
71391;SDS011;59205;50.610;12.638;2022-09-03T04:46:09;5.00;;;1.93;;
71391;SDS011;59205;50.610;12.638;2022-09-03T04:48:35;3.25;;;1.60;;
71391;SDS011;59205;50.610;12.638;2022-09-03T04:51:06;3.33;;;1.67;;
71391;SDS011;59205;50.610;12.638;2022-09-03T04:53:40;4.13;;;1.80;;
71391;SDS011;59205;50.610;12.638;2022-09-03T04:56:13;2.88;;;1.50;;
71391;SDS011;59205;50.610;12.638;2022-09-03T04:58:44;4.00;;;1.70;;
71391;SDS011;59205;50.610;12.638;2022-09-03T05:01:19;4.55;;;1.45;;
71391;SDS011;59205;50.610;12.638;2022-09-03T05:03:46;3.80;;;1.60;;
71391;SDS011;59205;50.610;12.638;2022-09-03T05:06:12;3.75;;;1.48;;
71391;SDS011;59205;50.610;12.638;2022-09-03T05:08:41;3.58;;;1.60;;
71391;SDS011;59205;50.610;12.638;2022-09-03T05:11:08;3.75;;;1.70;;
71391;SDS011;59205;50.610;12.638;2022-09-03T05:13:34;2.83;;;1.50;;
71391;SDS011;59205;50.610;12.638;2022-09-03T05:16:01;4.93;;;1.55;;
71391;SDS011;59205;50.610;12.638;2022-09-03T05:18:28;5.90;;;1.63;;
71391;SDS011;59205;50.610;12.638;2022-09-03T05:21:04;3.67;;;1.52;;
71391;SDS011;59205;50.610;12.638;2022-09-03T05:23:31;3.92;;;1.30;;
71391;SDS011;59205;50.610;12.638;2022-09-03T05:26:01;3.65;;;1.40;;
71391;SDS011;59205;50.610;12.638;2022-09-03T05:28:30;4.68;;;2.10;;
71391;SDS011;59205;50.610;12.638;2022-09-03T05:33:26;2.88;;;1.60;;
71391;SDS011;59205;50.610;12.638;2022-09-03T05:35:53;2.72;;;1.60;;
71391;SDS011;59205;50.610;12.638;2022-09-03T05:38:38;4.20;;;1.67;;
71391;SDS011;59205;50.610;12.638;2022-09-03T05:41:05;3.00;;;1.50;;
71391;SDS011;59205;50.610;12.638;2022-09-03T05:43:32;2.90;;;1.58;;
71391;SDS011;59205;50.610;12.638;2022-09-03T05:45:59;2.63;;;1.50;;
71391;SDS011;59205;50.610;12.638;2022-09-03T05:48:30;3.28;;;1.77;;
71391;SDS011;59205;50.610;12.638;2022-09-03T05:51:01;2.35;;;1.60;;
71391;SDS011;59205;50.610;12.638;2022-09-03T05:53:28;5.90;;;1.80;;
71391;SDS011;59205;50.610;12.638;2022-09-03T05:56:05;5.38;;;1.60;;
71391;SDS011;59205;50.610;12.638;2022-09-03T05:58:36;4.85;;;1.42;;
71391;SDS011;59205;50.610;12.638;2022-09-03T06:03:37;2.72;;;1.40;;
71391;SDS011;59205;50.610;12.638;2022-09-03T06:06:03;3.63;;;1.60;;
71391;SDS011;59205;50.610;12.638;2022-09-03T06:08:29;4.50;;;1.60;;
71391;SDS011;59205;50.610;12.638;2022-09-03T06:11:01;3.83;;;1.63;;
71391;SDS011;59205;50.610;12.638;2022-09-03T06:13:30;3.15;;;1.60;;
71391;SDS011;59205;50.610;12.638;2022-09-03T06:15:57;3.47;;;1.60;;
71391;SDS011;59205;50.610;12.638;2022-09-03T06:18:26;3.15;;;1.38;;
71391;SDS011;59205;50.610;12.638;2022-09-03T06:20:56;4.13;;;1.73;;
71391;SDS011;59205;50.610;12.638;2022-09-03T06:25:58;4.20;;;1.67;;
71391;SDS011;59205;50.610;12.638;2022-09-03T06:28:24;2.85;;;1.60;;
71391;SDS011;59205;50.610;12.638;2022-09-03T06:30:51;5.10;;;1.60;;
71391;SDS011;59205;50.610;12.638;2022-09-03T06:33:17;2.72;;;1.30;;
71391;SDS011;59205;50.610;12.638;2022-09-03T06:35:42;5.18;;;1.52;;
71391;SDS011;59205;50.610;12.638;2022-09-03T06:38:08;3.22;;;1.52;;
71391;SDS011;59205;50.610;12.638;2022-09-03T06:40:36;2.30;;;1.40;;
71391;SDS011;59205;50.610;12.638;2022-09-03T06:43:02;2.78;;;1.60;;
71391;SDS011;59205;50.610;12.638;2022-09-03T06:45:31;3.78;;;1.40;;
71391;SDS011;59205;50.610;12.638;2022-09-03T06:47:56;2.53;;;1.45;;
71391;SDS011;59205;50.610;12.638;2022-09-03T06:50:22;1.73;;;1.40;;
71391;SDS011;59205;50.610;12.638;2022-09-03T06:52:51;3.53;;;1.40;;
71391;SDS011;59205;50.610;12.638;2022-09-03T06:55:19;2.28;;;1.40;;
71391;SDS011;59205;50.610;12.638;2022-09-03T06:57:47;4.07;;;1.48;;
71391;SDS011;59205;50.610;12.638;2022-09-03T07:00:13;4.35;;;1.60;;
71391;SDS011;59205;50.610;12.638;2022-09-03T07:02:39;2.88;;;1.48;;
71391;SDS011;59205;50.610;12.638;2022-09-03T07:05:05;2.30;;;1.33;;
71391;SDS011;59205;50.610;12.638;2022-09-03T07:07:32;5.15;;;1.67;;
71391;SDS011;59205;50.610;12.638;2022-09-03T07:09:57;2.50;;;1.45;;
71391;SDS011;59205;50.610;12.638;2022-09-03T07:12:23;3.25;;;1.35;;
71391;SDS011;59205;50.610;12.638;2022-09-03T07:14:48;3.10;;;1.65;;
71391;SDS011;59205;50.610;12.638;2022-09-03T07:17:14;4.30;;;1.67;;
71391;SDS011;59205;50.610;12.638;2022-09-03T07:19:40;2.78;;;1.33;;
71391;SDS011;59205;50.610;12.638;2022-09-03T07:22:05;1.92;;;1.20;;
71391;SDS011;59205;50.610;12.638;2022-09-03T07:24:32;3.67;;;1.13;;
71391;SDS011;59205;50.610;12.638;2022-09-03T07:26:57;4.18;;;1.30;;
71391;SDS011;59205;50.610;12.638;2022-09-03T07:29:23;3.50;;;1.42;;
71391;SDS011;59205;50.610;12.638;2022-09-03T07:31:49;1.63;;;1.17;;
71391;SDS011;59205;50.610;12.638;2022-09-03T07:34:15;2.17;;;1.40;;
71391;SDS011;59205;50.610;12.638;2022-09-03T07:36:41;2.90;;;1.40;;
71391;SDS011;59205;50.610;12.638;2022-09-03T07:41:36;6.55;;;3.10;;
71391;SDS011;59205;50.610;12.638;2022-09-03T07:44:02;7.38;;;3.60;;
71391;SDS011;59205;50.610;12.638;2022-09-03T07:46:32;5.20;;;2.60;;
71391;SDS011;59205;50.610;12.638;2022-09-03T07:48:59;3.58;;;2.17;;
71391;SDS011;59205;50.610;12.638;2022-09-03T07:51:34;3.50;;;2.13;;
71391;SDS011;59205;50.610;12.638;2022-09-03T07:54:01;5.15;;;1.90;;
71391;SDS011;59205;50.610;12.638;2022-09-03T07:56:30;2.95;;;1.50;;
71391;SDS011;59205;50.610;12.638;2022-09-03T07:58:56;2.17;;;1.40;;
71391;SDS011;59205;50.610;12.638;2022-09-03T08:01:24;4.38;;;1.60;;
71391;SDS011;59205;50.610;12.638;2022-09-03T08:03:52;3.13;;;1.40;;
71391;SDS011;59205;50.610;12.638;2022-09-03T08:06:20;1.88;;;1.33;;
71391;SDS011;59205;50.610;12.638;2022-09-03T08:08:47;2.38;;;1.50;;
71391;SDS011;59205;50.610;12.638;2022-09-03T08:13:41;4.93;;;1.60;;
71391;SDS011;59205;50.610;12.638;2022-09-03T08:16:09;3.22;;;1.70;;
71391;SDS011;59205;50.610;12.638;2022-09-03T08:18:35;4.03;;;1.77;;
71391;SDS011;59205;50.610;12.638;2022-09-03T08:21:06;3.10;;;1.83;;
71391;SDS011;59205;50.610;12.638;2022-09-03T08:23:37;3.00;;;1.83;;
71391;SDS011;59205;50.610;12.638;2022-09-03T08:26:04;3.63;;;1.70;;
71391;SDS011;59205;50.610;12.638;2022-09-03T08:28:30;4.00;;;1.95;;
71391;SDS011;59205;50.610;12.638;2022-09-03T08:30:58;3.92;;;2.03;;
71391;SDS011;59205;50.610;12.638;2022-09-03T08:33:43;4.80;;;1.90;;
71391;SDS011;59205;50.610;12.638;2022-09-03T08:36:14;2.63;;;1.40;;
71391;SDS011;59205;50.610;12.638;2022-09-03T08:38:46;4.10;;;2.08;;
71391;SDS011;59205;50.610;12.638;2022-09-03T08:41:15;2.40;;;1.50;;
71391;SDS011;59205;50.610;12.638;2022-09-03T08:46:24;2.80;;;1.52;;
71391;SDS011;59205;50.610;12.638;2022-09-03T08:49:02;2.63;;;1.60;;
71391;SDS011;59205;50.610;12.638;2022-09-03T08:51:29;5.00;;;1.50;;
71391;SDS011;59205;50.610;12.638;2022-09-03T08:53:59;5.38;;;1.50;;
71391;SDS011;59205;50.610;12.638;2022-09-03T08:56:26;3.75;;;1.40;;
71391;SDS011;59205;50.610;12.638;2022-09-03T08:58:54;2.55;;;1.42;;
71391;SDS011;59205;50.610;12.638;2022-09-03T09:20:45;2.90;;;1.40;;
71391;SDS011;59205;50.610;12.638;2022-09-03T09:23:26;4.88;;;1.30;;
71391;SDS011;59205;50.610;12.638;2022-09-03T09:25:55;5.20;;;1.60;;
71391;SDS011;59205;50.610;12.638;2022-09-03T09:28:24;3.03;;;1.40;;
71391;SDS011;59205;50.610;12.638;2022-09-03T09:30:57;2.30;;;1.40;;
71391;SDS011;59205;50.610;12.638;2022-09-03T09:33:23;3.45;;;1.42;;
71391;SDS011;59205;50.610;12.638;2022-09-03T09:35:49;2.13;;;1.30;;
71391;SDS011;59205;50.610;12.638;2022-09-03T09:38:25;2.72;;;1.45;;
71391;SDS011;59205;50.610;12.638;2022-09-03T09:40:55;1.48;;;1.17;;
71391;SDS011;59205;50.610;12.638;2022-09-03T09:43:22;1.83;;;1.23;;
71391;SDS011;59205;50.610;12.638;2022-09-03T09:45:49;2.88;;;1.35;;
71391;SDS011;59205;50.610;12.638;2022-09-03T09:48:29;1.77;;;1.20;;
71391;SDS011;59205;50.610;12.638;2022-09-03T09:51:04;2.15;;;1.08;;
71391;SDS011;59205;50.610;12.638;2022-09-03T09:53:31;3.30;;;1.25;;
71391;SDS011;59205;50.610;12.638;2022-09-03T09:55:57;3.30;;;1.30;;
71391;SDS011;59205;50.610;12.638;2022-09-03T09:58:24;2.40;;;1.30;;
71391;SDS011;59205;50.610;12.638;2022-09-03T10:00:56;2.22;;;1.10;;
71391;SDS011;59205;50.610;12.638;2022-09-03T10:03:24;1.15;;;1.05;;
71391;SDS011;59205;50.610;12.638;2022-09-03T10:06:00;2.42;;;1.10;;
71391;SDS011;59205;50.610;12.638;2022-09-03T10:08:49;1.58;;;1.20;;
71391;SDS011;59205;50.610;12.638;2022-09-03T10:11:15;1.75;;;1.30;;
71391;SDS011;59205;50.610;12.638;2022-09-03T10:13:43;2.45;;;1.20;;
71391;SDS011;59205;50.610;12.638;2022-09-03T10:16:18;1.95;;;1.35;;
71391;SDS011;59205;50.610;12.638;2022-09-03T10:21:14;11.82;;;5.85;;
71391;SDS011;59205;50.610;12.638;2022-09-03T10:26:27;2.80;;;1.38;;
71391;SDS011;59205;50.610;12.638;2022-09-03T10:28:59;2.45;;;1.20;;
71391;SDS011;59205;50.610;12.638;2022-09-03T10:31:44;1.10;;;1.00;;
71391;SDS011;59205;50.610;12.638;2022-09-03T10:47:55;2.35;;;1.20;;
71391;SDS011;59205;50.610;12.638;2022-09-03T10:50:33;2.45;;;1.17;;
71391;SDS011;59205;50.610;12.638;2022-09-03T10:59:45;1.75;;;1.10;;
71391;SDS011;59205;50.610;12.638;2022-09-03T11:06:56;1.27;;;1.17;;
71391;SDS011;59205;50.610;12.638;2022-09-03T11:09:37;2.92;;;1.38;;
71391;SDS011;59205;50.610;12.638;2022-09-03T11:12:17;3.03;;;1.00;;
71391;SDS011;59205;50.610;12.638;2022-09-03T11:15:08;3.13;;;1.10;;
71391;SDS011;59205;50.610;12.638;2022-09-03T11:18:13;1.80;;;1.05;;
71391;SDS011;59205;50.610;12.638;2022-09-03T11:20:40;1.67;;;1.10;;
71391;SDS011;59205;50.610;12.638;2022-09-03T11:23:07;2.08;;;1.20;;
71391;SDS011;59205;50.610;12.638;2022-09-03T11:25:40;1.15;;;1.00;;
71391;SDS011;59205;50.610;12.638;2022-09-03T11:28:18;2.22;;;1.20;;
71391;SDS011;59205;50.610;12.638;2022-09-03T11:31:28;2.15;;;1.00;;
71391;SDS011;59205;50.610;12.638;2022-09-03T11:34:24;3.50;;;0.90;;
71391;SDS011;59205;50.610;12.638;2022-09-03T11:37:05;4.72;;;0.93;;
71391;SDS011;59205;50.610;12.638;2022-09-03T11:41:57;2.92;;;1.30;;
71391;SDS011;59205;50.610;12.638;2022-09-03T11:44:33;2.97;;;1.33;;
71391;SDS011;59205;50.610;12.638;2022-09-03T11:47:20;1.20;;;1.00;;
71391;SDS011;59205;50.610;12.638;2022-09-03T11:49:48;1.88;;;1.00;;
71391;SDS011;59205;50.610;12.638;2022-09-03T11:52:26;2.15;;;1.00;;
71391;SDS011;59205;50.610;12.638;2022-09-03T11:54:53;1.48;;;1.00;;
71391;SDS011;59205;50.610;12.638;2022-09-03T11:57:24;2.38;;;1.27;;
71391;SDS011;59205;50.610;12.638;2022-09-03T11:59:51;1.17;;;1.00;;
71391;SDS011;59205;50.610;12.638;2022-09-03T12:02:33;2.80;;;1.10;;
71391;SDS011;59205;50.610;12.638;2022-09-03T12:05:13;1.08;;;0.90;;
71391;SDS011;59205;50.610;12.638;2022-09-03T12:10:44;2.10;;;1.10;;
71391;SDS011;59205;50.610;12.638;2022-09-03T12:19:39;1.90;;;1.00;;
71391;SDS011;59205;50.610;12.638;2022-09-03T12:22:12;2.40;;;1.20;;
71391;SDS011;59205;50.610;12.638;2022-09-03T12:24:40;3.28;;;1.10;;
71391;SDS011;59205;50.610;12.638;2022-09-03T12:27:08;1.48;;;1.10;;
71391;SDS011;59205;50.610;12.638;2022-09-03T12:29:36;4.82;;;1.48;;
71391;SDS011;59205;50.610;12.638;2022-09-03T12:32:07;1.40;;;1.13;;
71391;SDS011;59205;50.610;12.638;2022-09-03T12:34:37;3.20;;;1.20;;
71391;SDS011;59205;50.610;12.638;2022-09-03T12:37:02;2.80;;;1.00;;
71391;SDS011;59205;50.610;12.638;2022-09-03T12:42:20;1.42;;;1.20;;
71391;SDS011;59205;50.610;12.638;2022-09-03T12:44:49;1.10;;;1.00;;
71391;SDS011;59205;50.610;12.638;2022-09-03T12:47:15;2.53;;;1.10;;
71391;SDS011;59205;50.610;12.638;2022-09-03T12:49:43;2.17;;;1.30;;
71391;SDS011;59205;50.610;12.638;2022-09-03T12:52:17;2.20;;;1.10;;
71391;SDS011;59205;50.610;12.638;2022-09-03T12:54:47;3.03;;;0.90;;
71391;SDS011;59205;50.610;12.638;2022-09-03T12:57:19;1.67;;;1.08;;
71391;SDS011;59205;50.610;12.638;2022-09-03T12:59:48;1.15;;;1.00;;
71391;SDS011;59205;50.610;12.638;2022-09-03T13:02:23;2.08;;;1.10;;
71391;SDS011;59205;50.610;12.638;2022-09-03T13:04:52;2.13;;;1.25;;
71391;SDS011;59205;50.610;12.638;2022-09-03T13:07:27;1.42;;;1.10;;
71391;SDS011;59205;50.610;12.638;2022-09-03T13:10:03;2.42;;;1.20;;
71391;SDS011;59205;50.610;12.638;2022-09-03T13:12:47;1.55;;;1.10;;
71391;SDS011;59205;50.610;12.638;2022-09-03T13:15:20;2.47;;;1.20;;
71391;SDS011;59205;50.610;12.638;2022-09-03T13:26:12;2.50;;;1.20;;
71391;SDS011;59205;50.610;12.638;2022-09-03T13:31:42;1.67;;;1.00;;
71391;SDS011;59205;50.610;12.638;2022-09-03T13:34:19;2.47;;;1.13;;
71391;SDS011;59205;50.610;12.638;2022-09-03T13:36:50;1.73;;;1.10;;
71391;SDS011;59205;50.610;12.638;2022-09-03T13:39:37;1.65;;;1.20;;
71391;SDS011;59205;50.610;12.638;2022-09-03T13:45:00;3.80;;;1.37;;
71391;SDS011;59205;50.610;12.638;2022-09-03T13:50:25;1.60;;;1.10;;
71391;SDS011;59205;50.610;12.638;2022-09-03T13:53:01;3.42;;;1.20;;
71391;SDS011;59205;50.610;12.638;2022-09-03T13:55:45;1.17;;;1.08;;
71391;SDS011;59205;50.610;12.638;2022-09-03T13:58:26;2.45;;;1.38;;
71391;SDS011;59205;50.610;12.638;2022-09-03T14:22:14;1.95;;;1.20;;
71391;SDS011;59205;50.610;12.638;2022-09-03T14:27:29;1.50;;;1.08;;
71391;SDS011;59205;50.610;12.638;2022-09-03T14:30:00;1.40;;;1.02;;
71391;SDS011;59205;50.610;12.638;2022-09-03T14:35:16;1.73;;;1.20;;
71391;SDS011;59205;50.610;12.638;2022-09-03T14:40:25;1.58;;;1.00;;
71391;SDS011;59205;50.610;12.638;2022-09-03T14:54:26;1.88;;;1.60;;
71391;SDS011;59205;50.610;12.638;2022-09-03T15:03:17;2.53;;;1.10;;
71391;SDS011;59205;50.610;12.638;2022-09-03T15:09:14;2.67;;;1.23;;
71391;SDS011;59205;50.610;12.638;2022-09-03T15:11:51;1.73;;;1.30;;
71391;SDS011;59205;50.610;12.638;2022-09-03T15:14:54;3.42;;;1.10;;
71391;SDS011;59205;50.610;12.638;2022-09-03T15:20:34;2.65;;;1.30;;
71391;SDS011;59205;50.610;12.638;2022-09-03T15:26:42;2.22;;;1.40;;
71391;SDS011;59205;50.610;12.638;2022-09-03T15:41:43;2.38;;;1.30;;
71391;SDS011;59205;50.610;12.638;2022-09-03T15:44:43;1.90;;;1.50;;
71391;SDS011;59205;50.610;12.638;2022-09-03T15:56:35;2.53;;;1.33;;
71391;SDS011;59205;50.610;12.638;2022-09-03T16:15:03;3.45;;;1.50;;
71391;SDS011;59205;50.610;12.638;2022-09-03T16:24:16;1.80;;;1.30;;
71391;SDS011;59205;50.610;12.638;2022-09-03T16:52:14;4.07;;;1.60;;
71391;SDS011;59205;50.610;12.638;2022-09-03T16:57:46;2.90;;;1.50;;
71391;SDS011;59205;50.610;12.638;2022-09-03T17:03:42;4.47;;;2.28;;
71391;SDS011;59205;50.610;12.638;2022-09-03T17:06:25;5.22;;;2.17;;
71391;SDS011;59205;50.610;12.638;2022-09-03T17:09:22;3.15;;;1.90;;
71391;SDS011;59205;50.610;12.638;2022-09-03T17:12:02;4.00;;;2.07;;
71391;SDS011;59205;50.610;12.638;2022-09-03T17:31:26;2.95;;;2.10;;
71391;SDS011;59205;50.610;12.638;2022-09-03T17:36:38;3.63;;;2.10;;
71391;SDS011;59205;50.610;12.638;2022-09-03T17:42:17;3.10;;;1.80;;
71391;SDS011;59205;50.610;12.638;2022-09-03T17:45:13;6.50;;;2.10;;
71391;SDS011;59205;50.610;12.638;2022-09-03T17:53:21;5.53;;;2.20;;
71391;SDS011;59205;50.610;12.638;2022-09-03T17:56:03;3.75;;;2.10;;
71391;SDS011;59205;50.610;12.638;2022-09-03T17:58:39;5.55;;;2.20;;
71391;SDS011;59205;50.610;12.638;2022-09-03T18:01:23;5.75;;;2.35;;
71391;SDS011;59205;50.610;12.638;2022-09-03T18:04:01;3.22;;;2.25;;
71391;SDS011;59205;50.610;12.638;2022-09-03T18:06:46;3.83;;;2.28;;
71391;SDS011;59205;50.610;12.638;2022-09-03T18:12:04;4.15;;;2.30;;
71391;SDS011;59205;50.610;12.638;2022-09-03T18:17:31;5.13;;;2.20;;
71391;SDS011;59205;50.610;12.638;2022-09-03T18:20:07;4.88;;;2.40;;
71391;SDS011;59205;50.610;12.638;2022-09-03T18:26:11;4.25;;;2.40;;
71391;SDS011;59205;50.610;12.638;2022-09-03T18:29:11;6.30;;;2.72;;
71391;SDS011;59205;50.610;12.638;2022-09-03T18:32:02;5.68;;;2.38;;
71391;SDS011;59205;50.610;12.638;2022-09-03T18:34:48;5.88;;;2.35;;
71391;SDS011;59205;50.610;12.638;2022-09-03T18:37:32;4.88;;;2.25;;
71391;SDS011;59205;50.610;12.638;2022-09-03T18:40:19;4.95;;;2.30;;
71391;SDS011;59205;50.610;12.638;2022-09-03T18:43:30;4.00;;;2.20;;
71391;SDS011;59205;50.610;12.638;2022-09-03T18:49:34;6.15;;;2.45;;
71391;SDS011;59205;50.610;12.638;2022-09-03T18:52:37;5.63;;;2.40;;
71391;SDS011;59205;50.610;12.638;2022-09-03T18:58:52;6.72;;;2.60;;
71391;SDS011;59205;50.610;12.638;2022-09-03T19:01:52;5.68;;;2.50;;
71391;SDS011;59205;50.610;12.638;2022-09-03T19:04:56;4.35;;;2.55;;
71391;SDS011;59205;50.610;12.638;2022-09-03T19:08:01;8.40;;;2.90;;
71391;SDS011;59205;50.610;12.638;2022-09-03T19:13:41;10.07;;;3.53;;
71391;SDS011;59205;50.610;12.638;2022-09-03T19:19:32;6.93;;;2.85;;
71391;SDS011;59205;50.610;12.638;2022-09-03T19:22:26;11.95;;;6.50;;
71391;SDS011;59205;50.610;12.638;2022-09-03T19:25:15;13.35;;;6.70;;
71391;SDS011;59205;50.610;12.638;2022-09-03T19:28:02;9.55;;;4.10;;
71391;SDS011;59205;50.610;12.638;2022-09-03T19:34:24;4.78;;;2.40;;
71391;SDS011;59205;50.610;12.638;2022-09-03T19:46:39;4.05;;;2.55;;
71391;SDS011;59205;50.610;12.638;2022-09-03T19:49:47;5.57;;;2.90;;
71391;SDS011;59205;50.610;12.638;2022-09-03T19:52:56;4.20;;;2.30;;
71391;SDS011;59205;50.610;12.638;2022-09-03T19:55:44;4.07;;;2.45;;
71391;SDS011;59205;50.610;12.638;2022-09-03T19:58:32;4.47;;;2.40;;
71391;SDS011;59205;50.610;12.638;2022-09-03T20:01:20;4.75;;;2.10;;
71391;SDS011;59205;50.610;12.638;2022-09-03T20:04:11;3.10;;;2.28;;
71391;SDS011;59205;50.610;12.638;2022-09-03T20:06:57;4.93;;;2.38;;
71391;SDS011;59205;50.610;12.638;2022-09-03T20:09:43;3.95;;;2.10;;
71391;SDS011;59205;50.610;12.638;2022-09-03T20:12:30;3.67;;;2.47;;
71391;SDS011;59205;50.610;12.638;2022-09-03T20:15:01;5.38;;;2.20;;
71391;SDS011;59205;50.610;12.638;2022-09-03T20:20:38;4.27;;;2.37;;
71391;SDS011;59205;50.610;12.638;2022-09-03T20:23:32;3.10;;;2.40;;
71391;SDS011;59205;50.610;12.638;2022-09-03T20:31:34;5.72;;;2.33;;
71391;SDS011;59205;50.610;12.638;2022-09-03T20:39:35;5.18;;;2.13;;
71391;SDS011;59205;50.610;12.638;2022-09-03T20:42:41;5.60;;;2.22;;
71391;SDS011;59205;50.610;12.638;2022-09-03T20:45:36;6.22;;;2.25;;
71391;SDS011;59205;50.610;12.638;2022-09-03T20:48:23;3.63;;;2.30;;
71391;SDS011;59205;50.610;12.638;2022-09-03T20:56:16;3.13;;;2.15;;
71391;SDS011;59205;50.610;12.638;2022-09-03T21:02:02;3.50;;;2.40;;
71391;SDS011;59205;50.610;12.638;2022-09-03T21:04:59;4.30;;;2.20;;
71391;SDS011;59205;50.610;12.638;2022-09-03T21:10:19;4.07;;;2.10;;
71391;SDS011;59205;50.610;12.638;2022-09-03T21:13:11;5.63;;;2.30;;
71391;SDS011;59205;50.610;12.638;2022-09-03T21:15:42;4.03;;;2.20;;
71391;SDS011;59205;50.610;12.638;2022-09-03T21:18:15;4.80;;;2.38;;
71391;SDS011;59205;50.610;12.638;2022-09-03T21:23:37;4.22;;;2.05;;
71391;SDS011;59205;50.610;12.638;2022-09-03T21:26:09;7.20;;;2.50;;
71391;SDS011;59205;50.610;12.638;2022-09-03T21:28:40;4.75;;;2.28;;
71391;SDS011;59205;50.610;12.638;2022-09-03T21:34:12;3.08;;;2.30;;
71391;SDS011;59205;50.610;12.638;2022-09-03T21:37:01;2.92;;;2.25;;
71391;SDS011;59205;50.610;12.638;2022-09-03T22:01:17;6.68;;;3.38;;
71391;SDS011;59205;50.610;12.638;2022-09-03T22:03:50;4.10;;;2.42;;